Terminal Aerodrome Forecast
Issued by NWS Jacksonville, FL

Home | Current Version | Previous Version | Text Only | Print | Product List | Glossary On
Versions: 1 2 3 4 5 6 7 8 9 10 11 12 13 14 15 16 17
000
FTUS42 KJAX 300500 RRA
TAFJAX
TAF
KJAX 300545Z 3006/3106 17005KT P6SM FEW010 SCT090
     FM301500 16004KT P6SM SCT035
     FM302000 13010KT P6SM VCTS SCT020 BKN035CB BKN120
     FM310000 12007KT P6SM VCSH SCT030 BKN120=

USA.gov is the U.S. government's official web portal to all federal, state and local government web resources and services.